Time;durP1;ratioP1;P1;durP2;ratioP2;P2;SDS_P1;SDS_P2;PMS_P1;PMS_P2;Temp;Humidity;BMP_temperature;BMP_pressure;BME280_temperature;BME280_humidity;BME280_pressure;Samples;Min_cycle;Max_cycle;Signal;HPM_P1;HPM_P2
2022/12/05 03:00:29;;;;;;;22.70;20.50;;;3.30;99.90;;;;;;5932353;23;20182;31
2022/12/05 03:02:59;;;;;;;22.80;20.50;;;3.20;99.90;;;;;;4860815;29;21203;-78
2022/12/05 03:05:35;;;;;;;22.43;20.23;;;3.20;99.90;;;;;;4860849;29;20210;-79
2022/12/05 03:08:04;;;;;;;22.30;20.10;;;3.20;99.90;;;;;;4863244;29;20204;-78
2022/12/05 03:10:32;;;;;;;24.97;21.93;;;3.20;99.90;;;;;;4857560;29;20246;-78
2022/12/05 03:13:05;;;;;;;23.83;21.50;;;3.20;99.90;;;;;;4871284;29;20198;-78
2022/12/05 03:15:39;;;;;;;25.00;21.60;;;3.20;99.90;;;;;;4868204;29;20451;-78
2022/12/05 03:18:10;;;;;;;26.33;22.53;;;3.30;99.90;;;;;;4873187;29;20678;-78
2022/12/05 03:20:43;;;;;;;23.80;21.43;;;3.30;99.90;;;;;;4869254;29;20450;-78
2022/12/05 03:23:15;;;;;;;23.80;21.30;;;3.30;99.90;;;;;;4866116;29;20245;-78
2022/12/05 03:25:52;;;;;;;25.03;20.90;;;3.30;99.90;;;;;;4867505;29;20226;-78
2022/12/05 03:28:24;;;;;;;26.93;22.10;;;3.30;99.90;;;;;;4872718;29;20455;-78
2022/12/05 03:30:55;;;;;;;22.93;20.50;;;3.40;99.90;;;;;;4870377;29;20249;-78
2022/12/05 03:33:26;;;;;;;27.03;21.33;;;3.40;99.90;;;;;;4872060;29;20457;-79
2022/12/05 03:36:02;;;;;;;23.07;20.57;;;3.40;99.90;;;;;;4865035;29;20454;-78
2022/12/05 03:38:34;;;;;;;23.73;20.60;;;3.40;99.90;;;;;;4868895;29;20266;-78
2022/12/05 03:41:08;;;;;;;24.47;21.30;;;3.30;99.90;;;;;;4868985;29;20230;-81
2022/12/05 03:43:45;;;;;;;25.60;22.27;;;3.30;99.90;;;;;;4844606;29;20231;-78
2022/12/05 03:46:21;;;;;;;23.53;21.13;;;3.30;99.90;;;;;;4850562;29;20198;-77
2022/12/05 03:48:57;;;;;;;24.87;22.23;;;3.30;99.90;;;;;;4872070;29;20812;-78
2022/12/05 03:51:29;;;;;;;24.23;20.70;;;3.20;99.90;;;;;;4867452;29;20216;-78
2022/12/05 03:54:00;;;;;;;24.23;21.53;;;3.20;99.90;;;;;;4867461;29;20687;-79
2022/12/05 03:56:33;;;;;;;23.67;20.93;;;3.10;99.90;;;;;;4875574;29;20198;-79
2022/12/05 03:59:07;;;;;;;25.60;20.70;;;3.10;99.90;;;;;;4868509;29;20398;-81
2022/12/05 04:01:38;;;;;;;24.17;21.47;;;3.00;99.90;;;;;;4875062;29;20606;-80
2022/12/05 04:04:11;;;;;;;24.77;22.27;;;3.10;99.90;;;;;;4865595;29;20671;-81
2022/12/05 04:06:39;;;;;;;27.90;23.33;;;3.10;99.90;;;;;;4863159;29;20208;-80
2022/12/05 04:09:09;;;;;;;24.97;22.20;;;3.10;99.90;;;;;;4881655;29;20210;-80
2022/12/05 04:11:43;;;;;;;26.70;22.17;;;3.10;99.90;;;;;;4861218;29;20286;-80
2022/12/05 04:14:14;;;;;;;25.13;22.43;;;3.10;99.90;;;;;;4882772;29;20218;-80
2022/12/05 04:17:03;;;;;;;24.47;21.57;;;3.00;99.90;;;;;;4859743;29;20459;-78
2022/12/05 04:22:23;;;;;;;21.67;19.47;;;2.90;99.90;;;;;;4862209;29;20233;-79
2022/12/05 04:27:42;;;;;;;25.03;22.13;;;2.80;99.90;;;;;;4875694;29;20299;-79
2022/12/05 04:30:12;;;;;;;26.00;21.90;;;2.70;99.90;;;;;;4869197;29;20198;-79
2022/12/05 04:32:46;;;;;;;24.17;21.63;;;2.60;99.90;;;;;;4868209;29;20230;-78
2022/12/05 04:35:18;;;;;;;28.43;23.10;;;2.50;99.90;;;;;;4870269;29;20201;-76
2022/12/05 04:37:49;;;;;;;26.60;23.47;;;2.50;99.90;;;;;;4866355;29;20253;-79
2022/12/05 04:40:22;;;;;;;24.97;22.27;;;2.50;99.90;;;;;;4864363;29;20490;-79
2022/12/05 04:42:51;;;;;;;24.63;21.93;;;2.40;99.90;;;;;;4872515;29;20497;-78
2022/12/05 04:45:20;;;;;;;23.93;21.47;;;2.40;99.90;;;;;;4869156;29;20475;-79
2022/12/05 04:47:55;;;;;;;24.07;21.50;;;2.40;99.90;;;;;;4870487;29;20442;-79
2022/12/05 04:50:24;;;;;;;23.63;21.17;;;2.30;99.90;;;;;;4870954;29;20554;-80
2022/12/05 04:52:55;;;;;;;27.83;23.30;;;2.20;99.90;;;;;;4890865;29;20449;-79
2022/12/05 04:55:25;;;;;;;24.67;21.03;;;2.10;99.90;;;;;;4869609;29;20472;-78
2022/12/05 04:58:00;;;;;;;23.97;21.60;;;2.00;99.90;;;;;;4867731;29;20550;-79
2022/12/05 05:00:29;;;;;;;24.60;22.13;;;2.00;99.90;;;;;;4867275;29;20546;-78
2022/12/05 05:03:04;;;;;;;24.67;22.10;;;1.90;99.90;;;;;;4870668;29;20462;-79
2022/12/05 05:05:34;;;;;;;25.77;23.23;;;1.90;99.90;;;;;;4861619;29;20485;-79
2022/12/05 05:08:02;;;;;;;26.60;23.37;;;1.90;99.90;;;;;;4864983;29;20454;-79
2022/12/05 05:10:35;;;;;;;29.90;24.40;;;1.90;99.90;;;;;;4862181;29;20930;-79
2022/12/05 05:13:02;;;;;;;24.47;22.07;;;1.90;99.90;;;;;;4867788;29;20490;-78
2022/12/05 05:15:29;;;;;;;24.17;21.57;;;2.00;99.90;;;;;;4870848;29;20827;-78
2022/12/05 05:17:57;;;;;;;23.63;21.33;;;2.10;99.90;;;;;;4869780;29;20943;-78
2022/12/05 05:20:25;;;;;;;25.47;22.87;;;2.10;99.90;;;;;;4870352;29;20487;-79
2022/12/05 05:22:54;;;;;;;26.00;22.67;;;2.20;99.90;;;;;;4869766;29;20433;-78
2022/12/05 05:25:21;;;;;;;25.10;22.43;;;2.20;99.90;;;;;;4870493;29;20545;-79
2022/12/05 05:27:50;;;;;;;25.40;22.77;;;2.20;99.90;;;;;;4873054;29;20939;-79
2022/12/05 05:30:17;;;;;;;24.37;21.97;;;2.30;99.90;;;;;;4870693;29;20476;-79
2022/12/05 05:32:44;;;;;;;26.00;23.30;;;2.30;99.90;;;;;;4872154;29;20482;-79
2022/12/05 05:35:13;;;;;;;28.60;23.47;;;2.40;99.90;;;;;;4877701;29;20934;-79
2022/12/05 05:37:41;;;;;;;23.93;21.63;;;2.40;99.90;;;;;;4867698;29;20522;-78
2022/12/05 05:40:10;;;;;;;24.60;22.03;;;2.40;99.90;;;;;;4865400;29;20478;-79
2022/12/05 05:42:41;;;;;;;25.43;22.97;;;2.50;99.90;;;;;;4869494;29;20482;-79
2022/12/05 05:45:10;;;;;;;26.93;24.07;;;2.60;99.90;;;;;;4867438;29;20458;-77
2022/12/05 05:47:36;;;;;;;25.07;22.30;;;2.70;99.90;;;;;;4868863;29;20443;-79
2022/12/05 05:50:04;;;;;;;23.80;21.60;;;2.60;99.90;;;;;;4867546;29;20258;-79
2022/12/05 05:52:34;;;;;;;26.33;23.67;;;2.60;99.90;;;;;;4870629;29;20479;-79
2022/12/05 05:55:01;;;;;;;24.83;22.40;;;2.60;99.90;;;;;;4871632;29;20276;-79
2022/12/05 05:57:28;;;;;;;26.37;23.57;;;2.60;99.90;;;;;;4857584;29;20233;-78
2022/12/05 05:59:55;;;;;;;25.57;23.17;;;2.60;99.90;;;;;;4864594;29;20221;-79
2022/12/05 06:02:22;;;;;;;25.87;23.07;;;2.60;99.90;;;;;;4867833;29;20514;-78
2022/12/05 06:04:48;;;;;;;24.90;22.40;;;2.60;99.90;;;;;;4869193;29;20191;-79
2022/12/05 06:07:15;;;;;;;26.33;22.87;;;2.60;99.90;;;;;;4870719;29;20262;-78
2022/12/05 06:09:44;;;;;;;26.30;23.60;;;2.60;99.90;;;;;;4869112;29;20259;-79
2022/12/05 06:12:10;;;;;;;23.73;21.43;;;2.60;99.90;;;;;;4869197;29;20537;-78
2022/12/05 06:14:37;;;;;;;26.07;23.43;;;2.70;99.90;;;;;;4866105;29;21046;-78
2022/12/05 06:17:04;;;;;;;26.13;23.57;;;2.70;99.90;;;;;;4863065;29;20714;-78
2022/12/05 06:19:31;;;;;;;25.13;22.63;;;2.80;99.90;;;;;;4872454;29;20638;-78
2022/12/05 06:21:58;;;;;;;27.63;24.83;;;2.80;99.90;;;;;;4869886;29;20840;-78
2022/12/05 06:24:25;;;;;;;27.13;23.93;;;2.80;99.90;;;;;;4873315;29;20576;-78
2022/12/05 06:26:53;;;;;;;26.23;23.67;;;2.80;99.90;;;;;;4870643;29;20210;-78
2022/12/05 06:29:20;;;;;;;26.13;23.53;;;2.80;99.90;;;;;;4872918;29;20553;-77
2022/12/05 06:31:47;;;;;;;25.50;22.90;;;2.80;99.90;;;;;;4871096;29;20471;-78
2022/12/05 06:34:14;;;;;;;26.17;23.67;;;2.90;99.90;;;;;;4866979;29;20210;-78
2022/12/05 06:36:41;;;;;;;27.90;25.13;;;2.90;99.90;;;;;;4868317;29;20625;-78
2022/12/05 06:39:08;;;;;;;24.60;22.20;;;2.90;99.90;;;;;;4870671;29;20210;-78
2022/12/05 06:41:35;;;;;;;25.10;22.73;;;2.90;99.90;;;;;;4873318;29;20600;-78
2022/12/05 06:44:03;;;;;;;25.57;23.03;;;2.90;99.90;;;;;;4871147;29;20227;-78
2022/12/05 06:46:30;;;;;;;24.70;22.20;;;2.90;99.90;;;;;;4872256;29;20470;-78
2022/12/05 06:48:58;;;;;;;24.10;21.57;;;2.80;99.90;;;;;;4872253;29;20193;-78
2022/12/05 06:51:25;;;;;;;24.07;21.80;;;2.80;99.90;;;;;;4867312;29;20224;-78
2022/12/05 06:53:52;;;;;;;26.43;23.80;;;2.80;99.90;;;;;;4866893;29;20221;-78
2022/12/05 06:56:20;;;;;;;23.47;21.20;;;2.70;99.90;;;;;;4871994;29;20221;-77
2022/12/05 06:58:48;;;;;;;24.77;22.33;;;2.80;99.90;;;;;;4870394;29;20559;-78
2022/12/05 07:04:03;;;;;;;25.77;23.17;;;2.80;99.90;;;;;;4866864;29;20218;-78
2022/12/05 07:06:30;;;;;;;25.83;23.17;;;2.80;99.90;;;;;;4871493;29;20686;-78
2022/12/05 07:08:57;;;;;;;23.83;21.63;;;2.90;99.90;;;;;;4870236;29;20666;-78
2022/12/05 07:11:24;;;;;;;24.27;22.00;;;3.00;99.90;;;;;;4864776;29;20514;-78
2022/12/05 07:13:51;;;;;;;25.20;22.60;;;3.10;99.90;;;;;;4868338;29;20202;-78
2022/12/05 07:16:19;;;;;;;24.63;22.33;;;3.10;99.90;;;;;;4885994;29;20687;-78
2022/12/05 07:18:46;;;;;;;25.40;22.77;;;3.20;99.90;;;;;;4870626;29;20663;-78
2022/12/05 07:21:15;;;;;;;25.33;22.70;;;3.20;99.90;;;;;;4870447;29;20217;-78
2022/12/05 07:23:44;;;;;;;24.33;21.97;;;3.30;99.90;;;;;;4870681;29;20280;-78
2022/12/05 07:26:13;;;;;;;22.37;20.27;;;3.40;99.90;;;;;;4873607;29;20206;-78
2022/12/05 07:28:40;;;;;;;24.57;22.17;;;3.50;99.90;;;;;;4869081;29;20236;-79
2022/12/05 07:31:09;;;;;;;23.80;21.53;;;3.50;99.90;;;;;;4865160;29;20218;-79
2022/12/05 07:33:37;;;;;;;24.07;21.83;;;3.60;99.90;;;;;;4869051;29;20254;-78
2022/12/05 07:36:07;;;;;;;24.43;22.13;;;3.60;99.90;;;;;;4870268;29;20252;-78
2022/12/05 07:38:33;;;;;;;23.17;21.07;;;3.60;99.90;;;;;;4869321;29;20210;-78
2022/12/05 07:41:04;;;;;;;23.00;20.70;;;3.60;99.90;;;;;;4865546;29;20713;-78
2022/12/05 07:43:31;;;;;;;23.57;21.17;;;3.60;99.90;;;;;;4866782;29;20237;-77
2022/12/05 07:46:02;;;;;;;23.53;21.10;;;3.70;99.90;;;;;;4870842;29;20201;-79
2022/12/05 07:48:28;;;;;;;24.07;21.77;;;3.70;99.90;;;;;;4856591;29;20216;-77
2022/12/05 07:51:01;;;;;;;23.90;21.63;;;3.80;99.90;;;;;;4868315;29;20623;-77
2022/12/05 07:53:28;;;;;;;23.60;21.40;;;4.00;99.90;;;;;;4877750;29;20305;-81
2022/12/05 07:55:55;;;;;;;22.77;20.70;;;4.10;99.90;;;;;;4871705;29;20213;-79
2022/12/05 07:58:22;;;;;;;22.73;20.73;;;4.30;99.90;;;;;;4874408;29;20209;-79
2022/12/05 08:00:49;;;;;;;22.67;20.67;;;4.30;99.90;;;;;;4872566;29;20230;-80
2022/12/05 08:03:16;;;;;;;21.93;19.83;;;4.40;99.90;;;;;;4875398;29;20197;-80
2022/12/05 08:05:43;;;;;;;22.60;20.53;;;4.40;99.90;;;;;;4870417;29;20213;-79
2022/12/05 08:08:11;;;;;;;22.93;20.83;;;4.50;99.90;;;;;;4867363;29;20216;-80
2022/12/05 08:10:38;;;;;;;21.43;19.60;;;4.60;99.90;;;;;;4873538;29;20667;-79
2022/12/05 08:13:06;;;;;;;21.60;19.77;;;4.70;99.90;;;;;;4865571;29;20206;-80
2022/12/05 08:15:34;;;;;;;21.60;19.80;;;4.80;99.90;;;;;;4864635;29;20213;-80
2022/12/05 08:18:01;;;;;;;21.50;19.70;;;4.90;99.90;;;;;;4870692;29;20229;-80
2022/12/05 08:20:29;;;;;;;22.00;20.20;;;4.90;99.90;;;;;;4868928;29;20218;-80
2022/12/05 08:22:56;;;;;;;20.70;18.90;;;5.00;99.90;;;;;;4870087;29;20280;-80
2022/12/05 08:25:24;;;;;;;20.00;18.30;;;5.10;99.90;;;;;;4874383;29;20261;-79
2022/12/05 08:27:51;;;;;;;19.37;17.87;;;5.20;99.90;;;;;;4871777;29;20194;-79
2022/12/05 08:30:18;;;;;;;20.03;18.33;;;5.20;99.90;;;;;;4866179;29;20198;-79
2022/12/05 08:32:45;;;;;;;19.20;17.70;;;5.40;99.90;;;;;;4869113;29;20218;-79
2022/12/05 08:35:12;;;;;;;20.33;18.60;;;5.40;99.90;;;;;;4871380;29;20241;-80
2022/12/05 08:37:39;;;;;;;20.73;19.03;;;5.40;99.90;;;;;;4871949;29;20193;-79
2022/12/05 08:40:07;;;;;;;20.57;18.77;;;5.40;99.90;;;;;;4867912;29;20277;-79
2022/12/05 08:42:35;;;;;;;20.23;18.53;;;5.30;99.90;;;;;;4869930;29;20234;-81
2022/12/05 08:45:02;;;;;;;20.70;18.83;;;5.30;99.90;;;;;;4870050;29;20214;-79
2022/12/05 08:47:29;;;;;;;20.20;18.30;;;5.40;99.90;;;;;;4866938;29;20647;-79
2022/12/05 08:49:56;;;;;;;19.57;17.77;;;5.50;99.90;;;;;;4864527;29;20199;-79
2022/12/05 08:52:22;;;;;;;20.07;18.47;;;5.60;99.90;;;;;;4886043;29;20227;-80
2022/12/05 08:54:49;;;;;;;20.37;18.47;;;5.70;99.90;;;;;;4868321;29;20214;-79
2022/12/05 08:57:16;;;;;;;20.27;18.43;;;5.70;99.90;;;;;;4870202;29;20691;-79
2022/12/05 08:59:44;;;;;;;21.33;19.53;;;5.80;99.90;;;;;;4867822;29;20202;-80
2022/12/05 09:02:11;;;;;;;19.67;18.07;;;5.80;99.90;;;;;;4864016;29;20248;-80
2022/12/05 09:04:38;;;;;;;20.30;18.60;;;5.80;99.90;;;;;;4871816;29;20423;-79
2022/12/05 09:07:07;;;;;;;20.50;18.90;;;5.80;99.90;;;;;;4866987;29;20211;-79
2022/12/05 09:09:34;;;;;;;21.67;19.80;;;5.70;99.90;;;;;;4870031;29;20225;-79
2022/12/05 09:12:01;;;;;;;20.33;18.53;;;5.70;99.90;;;;;;4868682;29;20219;-79
2022/12/05 09:14:31;;;;;;;20.57;18.87;;;5.70;99.90;;;;;;4864536;29;20207;-79
2022/12/05 09:17:00;;;;;;;20.30;18.67;;;5.70;99.90;;;;;;4870252;29;20282;-80
2022/12/05 09:19:28;;;;;;;19.67;17.97;;;5.70;99.90;;;;;;4855142;29;20297;-79
2022/12/05 09:21:55;;;;;;;20.63;18.83;;;5.70;99.90;;;;;;4871338;29;20235;-79
2022/12/05 09:24:23;;;;;;;20.57;18.87;;;5.60;99.90;;;;;;4865034;29;20213;-79
2022/12/05 09:26:50;;;;;;;20.37;18.63;;;5.50;99.90;;;;;;4887120;29;20217;-79
2022/12/05 09:29:16;;;;;;;20.33;18.60;;;5.50;99.90;;;;;;4869292;29;20205;-80
2022/12/05 09:31:44;;;;;;;20.30;18.57;;;5.50;99.90;;;;;;4874409;29;20221;-80
2022/12/05 09:34:13;;;;;;;20.57;18.87;;;5.50;99.90;;;;;;4871350;29;20678;-80
2022/12/05 09:36:40;;;;;;;21.33;19.33;;;5.60;99.90;;;;;;4873197;29;20601;-80
2022/12/05 09:39:08;;;;;;;19.33;17.83;;;5.60;99.90;;;;;;4872098;29;20202;-78
2022/12/05 09:42:07;;;;;;;19.40;17.70;;;5.70;99.90;;;;;;4867446;29;20257;-80
2022/12/05 09:44:44;;;;;;;19.30;17.80;;;5.70;99.90;;;;;;4858954;29;20201;-80
2022/12/05 09:47:23;;;;;;;19.77;18.17;;;5.80;99.90;;;;;;4869724;29;20684;-78
2022/12/05 09:49:56;;;;;;;20.37;18.57;;;5.80;99.90;;;;;;4879782;29;20371;-80
2022/12/05 09:52:27;;;;;;;19.60;17.97;;;5.90;99.90;;;;;;4872442;29;20230;-80
2022/12/05 09:54:55;;;;;;;19.23;17.57;;;5.90;99.90;;;;;;4886336;29;20218;-80
2022/12/05 09:57:34;;;;;;;19.60;18.10;;;5.90;99.90;;;;;;4873049;29;20525;-80
2022/12/05 10:00:02;;;;;;;19.73;18.17;;;5.90;99.90;;;;;;4871014;29;20258;-80
2022/12/05 10:02:44;;;;;;;19.40;17.90;;;5.90;99.90;;;;;;4874895;29;20283;-80
2022/12/05 10:05:18;;;;;;;19.33;17.83;;;5.90;99.90;;;;;;4874072;29;20698;-79
2022/12/05 10:07:53;;;;;;;18.33;16.93;;;5.90;99.90;;;;;;4871015;29;20198;-79
2022/12/05 10:10:39;;;;;;;19.57;17.97;;;6.00;99.90;;;;;;4871241;29;20206;-79
2022/12/05 10:13:16;;;;;;;19.23;17.83;;;6.00;99.90;;;;;;4875550;29;20297;-80
2022/12/05 10:15:48;;;;;;;20.43;18.67;;;6.00;99.90;;;;;;4873445;29;20629;-79
2022/12/05 10:18:26;;;;;;;19.67;18.20;;;6.00;99.90;;;;;;4870097;29;20222;-80
2022/12/05 10:20:59;;;;;;;19.87;18.27;;;6.00;99.90;;;;;;4870039;29;20228;-80
2022/12/05 10:23:30;;;;;;;21.83;20.03;;;6.00;99.90;;;;;;4872060;29;20205;-80
2022/12/05 10:25:59;;;;;;;21.07;19.27;;;6.00;99.90;;;;;;4870821;29;20259;-80
2022/12/05 10:28:33;;;;;;;20.67;18.97;;;6.10;99.90;;;;;;4889052;29;20388;-79
2022/12/05 10:31:05;;;;;;;21.27;19.57;;;6.10;99.90;;;;;;4867078;29;20279;-80
2022/12/05 10:33:38;;;;;;;20.73;19.03;;;6.20;99.90;;;;;;4869779;29;20643;-80
2022/12/05 10:36:12;;;;;;;21.17;19.37;;;6.20;99.90;;;;;;4873389;29;20279;-79
2022/12/05 10:38:39;;;;;;;21.00;19.30;;;6.30;99.90;;;;;;4870316;29;20218;-79
2022/12/05 10:41:09;;;;;;;20.90;19.17;;;6.30;99.90;;;;;;4873236;29;20238;-79
2022/12/05 10:43:39;;;;;;;20.90;19.33;;;6.30;99.90;;;;;;4871566;29;20198;-79
2022/12/05 10:46:06;;;;;;;20.37;18.77;;;6.30;99.90;;;;;;4870393;29;20212;-79
2022/12/05 10:48:37;;;;;;;19.40;17.90;;;6.30;99.90;;;;;;4873350;29;20207;-79
2022/12/05 10:51:05;;;;;;;19.17;17.80;;;6.30;99.90;;;;;;4871544;29;20219;-79
2022/12/05 10:53:39;;;;;;;20.07;18.57;;;6.20;99.90;;;;;;4864544;29;20200;-79
2022/12/05 10:56:39;;;;;;;18.83;17.33;;;6.30;99.90;;;;;;4872246;29;20213;-79
2022/12/05 10:59:07;;;;;;;18.43;17.07;;;6.40;99.90;;;;;;4870354;29;20215;-81
2022/12/05 11:01:35;;;;;;;18.23;16.93;;;6.60;99.90;;;;;;4870305;29;20227;-78
2022/12/05 11:04:10;;;;;;;19.13;17.73;;;6.70;99.90;;;;;;4871464;29;20214;-79
2022/12/05 11:06:37;;;;;;;20.73;19.23;;;6.90;99.90;;;;;;4868842;29;20625;-78
2022/12/05 11:09:14;;;;;;;19.13;17.77;;;7.10;99.90;;;;;;4865279;29;20208;-78
2022/12/05 11:11:41;;;;;;;18.83;17.43;;;7.20;99.90;;;;;;4869097;29;20220;-78
2022/12/05 11:14:22;;;;;;;18.47;17.07;;;7.30;99.90;;;;;;4871389;29;20255;-79
2022/12/05 11:16:53;;;;;;;18.20;16.90;;;7.20;99.90;;;;;;4869184;29;20209;-79
2022/12/05 11:19:26;;;;;;;18.27;16.97;;;7.20;99.90;;;;;;4886796;29;20240;-78
2022/12/05 11:21:54;;;;;;;18.43;16.87;;;7.20;99.90;;;;;;4863839;29;20276;-79
2022/12/05 11:24:26;;;;;;;17.53;16.33;;;7.10;99.90;;;;;;4871284;29;20232;-79
2022/12/05 11:26:53;;;;;;;17.37;16.17;;;7.00;99.90;;;;;;4869618;29;20211;-78
2022/12/05 11:29:31;;;;;;;18.07;16.77;;;6.90;99.90;;;;;;4866052;29;20221;-78
2022/12/05 11:31:59;;;;;;;18.07;16.63;;;6.90;99.90;;;;;;4873384;29;20220;-80
2022/12/05 11:34:29;;;;;;;18.20;16.77;;;6.80;99.90;;;;;;4868320;29;20216;-80
2022/12/05 11:37:02;;;;;;;16.80;15.60;;;6.80;99.90;;;;;;4869841;29;20190;-80
2022/12/05 11:39:32;;;;;;;17.90;16.63;;;6.90;99.90;;;;;;4862356;29;20220;-80
2022/12/05 11:42:13;;;;;;;18.00;16.70;;;6.90;99.90;;;;;;4869573;29;20228;-81
2022/12/05 11:45:10;;;;;;;17.83;16.60;;;7.00;99.90;;;;;;4869694;29;20204;-80
2022/12/05 11:47:53;;;;;;;17.73;16.43;;;7.10;99.90;;;;;;4863086;29;20206;-80
2022/12/05 11:50:33;;;;;;;17.63;16.43;;;7.20;99.90;;;;;;4871437;29;20208;-80
2022/12/05 11:53:14;;;;;;;17.13;15.93;;;7.30;99.90;;;;;;4869366;29;20223;-80
2022/12/05 11:55:46;;;;;;;17.00;15.70;;;7.40;99.90;;;;;;4865742;29;20208;-80
2022/12/05 11:58:52;;;;;;;16.70;15.50;;;7.60;99.90;;;;;;4871689;29;20198;-80
2022/12/05 12:01:31;;;;;;;16.83;15.63;;;7.80;99.90;;;;;;4871513;29;20705;-79
2022/12/05 12:04:24;;;;;;;16.63;15.50;;;7.90;99.90;;;;;;4876747;29;20209;-80
2022/12/05 12:07:06;;;;;;;16.10;14.97;;;8.00;99.90;;;;;;4865718;29;20205;-81
2022/12/05 12:09:43;;;;;;;16.67;15.53;;;8.20;99.90;;;;;;4859816;29;20595;-81
2022/12/05 12:12:20;;;;;;;16.27;15.17;;;8.30;99.90;;;;;;4872119;29;20224;-81
2022/12/05 12:14:55;;;;;;;16.40;15.30;;;8.40;99.90;;;;;;4871265;29;20201;-80
2022/12/05 12:17:28;;;;;;;14.57;13.57;;;8.50;99.90;;;;;;4867560;29;20208;-80
2022/12/05 12:20:25;;;;;;;14.37;13.47;;;8.50;99.90;;;;;;4866913;29;20197;-81
2022/12/05 12:23:19;;;;;;;14.73;13.90;;;8.50;99.90;;;;;;4866408;29;20202;-81
2022/12/05 12:25:56;;;;;;;15.10;14.10;;;8.40;99.90;;;;;;4865185;29;20198;-80
2022/12/05 12:28:37;;;;;;;14.73;13.83;;;8.30;99.90;;;;;;4872290;29;20199;-80
2022/12/05 12:31:26;;;;;;;15.60;14.50;;;8.30;99.90;;;;;;4866871;29;20225;-82
2022/12/05 12:34:01;;;;;;;14.47;13.47;;;8.30;99.90;;;;;;4868663;29;20209;-79
2022/12/05 12:36:31;;;;;;;15.77;14.57;;;8.20;99.90;;;;;;4861299;29;20193;-79
2022/12/05 12:39:09;;;;;;;15.43;14.40;;;8.20;99.90;;;;;;4883689;29;20194;-79
2022/12/05 12:41:49;;;;;;;14.33;13.43;;;8.20;99.90;;;;;;4866551;29;20217;-78
2022/12/05 12:44:45;;;;;;;13.90;13.03;;;8.20;99.90;;;;;;4870785;29;20200;-79
2022/12/05 12:47:20;;;;;;;13.97;13.13;;;8.20;99.90;;;;;;4867501;29;20275;-79
2022/12/05 12:50:00;;;;;;;13.70;12.80;;;8.10;99.90;;;;;;4868216;29;20209;-79
2022/12/05 12:52:34;;;;;;;14.33;13.43;;;8.20;99.90;;;;;;4866036;29;20209;-79
2022/12/05 12:55:13;;;;;;;13.90;12.97;;;8.10;99.90;;;;;;4868558;29;20201;-78
2022/12/05 12:57:56;;;;;;;14.33;13.33;;;8.10;99.90;;;;;;4860050;29;20216;-78
2022/12/05 13:00:36;;;;;;;14.33;13.23;;;8.20;99.90;;;;;;4861212;29;20217;-78
2022/12/05 13:03:10;;;;;;;13.77;12.87;;;8.20;99.90;;;;;;4869531;29;20221;-78
2022/12/05 13:05:42;;;;;;;13.77;12.77;;;8.20;99.90;;;;;;4861574;29;20223;-78
2022/12/05 13:08:16;;;;;;;13.60;12.77;;;8.30;99.90;;;;;;4864259;29;20225;-78
2022/12/05 13:10:45;;;;;;;13.60;12.70;;;8.30;99.90;;;;;;4865501;29;20565;-77
2022/12/05 13:13:16;;;;;;;13.77;12.87;;;8.40;99.90;;;;;;4867120;29;20202;-78
2022/12/05 13:15:48;;;;;;;14.13;13.23;;;8.40;99.90;;;;;;4867506;29;20246;-78
2022/12/05 13:18:18;;;;;;;13.63;12.73;;;8.40;99.90;;;;;;4867521;29;20210;-78
2022/12/05 13:20:49;;;;;;;13.80;12.90;;;8.40;99.90;;;;;;4866907;29;20734;-78
2022/12/05 13:23:19;;;;;;;13.23;12.33;;;8.50;99.90;;;;;;4869325;29;20213;-79
2022/12/05 13:25:48;;;;;;;13.03;12.23;;;8.50;99.90;;;;;;4868479;29;20201;-78
2022/12/05 13:28:26;;;;;;;13.40;12.60;;;8.50;99.90;;;;;;4865316;29;20209;-78
2022/12/05 13:31:00;;;;;;;13.07;12.27;;;8.50;99.90;;;;;;4867989;29;20228;-78
2022/12/05 13:33:31;;;;;;;13.33;12.53;;;8.50;99.90;;;;;;4865858;29;20205;-78
2022/12/05 13:44:37;;;;;;;13.07;12.23;;;8.60;99.90;;;;;;4860543;29;20787;-78
2022/12/05 13:47:15;;;;;;;13.47;12.60;;;8.50;99.90;;;;;;4866387;29;20226;-78
2022/12/05 13:49:46;;;;;;;12.67;11.87;;;8.40;99.90;;;;;;4866258;29;20213;-78
2022/12/05 13:52:17;;;;;;;13.10;12.30;;;8.30;99.90;;;;;;4866760;29;20757;-77
2022/12/05 13:54:54;;;;;;;13.13;12.23;;;8.20;99.90;;;;;;4865819;29;20620;-78
2022/12/05 13:57:45;;;;;;;12.20;11.50;;;8.20;99.90;;;;;;4866514;29;20257;-78
2022/12/05 14:00:30;;;;;;;12.47;11.67;;;8.10;99.90;;;;;;4870711;29;20260;-78
2022/12/05 14:03:03;;;;;;;13.20;12.27;;;8.10;99.90;;;;;;4867754;29;20303;-78
2022/12/05 14:05:39;;;;;;;13.03;12.23;;;8.10;99.90;;;;;;4858039;29;20224;-78
2022/12/05 14:08:45;;;;;;;12.77;11.97;;;8.00;99.90;;;;;;4862727;29;20216;-78
2022/12/05 14:11:13;;;;;;;13.37;12.47;;;8.00;99.90;;;;;;4861729;29;20308;-78
2022/12/05 14:13:42;;;;;;;13.70;12.83;;;7.80;99.90;;;;;;4870288;29;20202;-78
2022/12/05 14:16:43;;;;;;;13.73;12.83;;;7.70;99.90;;;;;;4864641;29;20206;-78
2022/12/05 14:19:30;;;;;;;13.57;12.67;;;7.60;99.90;;;;;;4850933;29;20592;-78
2022/12/05 14:22:04;;;;;;;13.97;12.97;;;7.50;99.90;;;;;;4865383;29;20787;-78
2022/12/05 14:24:38;;;;;;;14.33;13.43;;;7.40;99.90;;;;;;4875398;29;20212;-78
2022/12/05 14:27:10;;;;;;;14.43;13.47;;;7.30;99.90;;;;;;4866744;29;20202;-78
2022/12/05 14:29:53;;;;;;;14.27;13.37;;;7.30;99.90;;;;;;4869568;29;20663;-77
2022/12/05 14:32:24;;;;;;;14.47;13.57;;;7.20;99.90;;;;;;4875435;29;20250;-76
2022/12/05 14:34:57;;;;;;;15.10;14.10;;;7.10;99.90;;;;;;4874960;29;20209;-76
2022/12/05 14:37:30;;;;;;;14.73;13.80;;;7.00;99.90;;;;;;4875453;29;20689;-77
2022/12/05 14:39:58;;;;;;;15.17;14.20;;;6.90;99.90;;;;;;4874285;29;20209;-77
2022/12/05 14:42:35;;;;;;;14.47;13.57;;;6.90;99.90;;;;;;4869096;29;20220;-77
2022/12/05 14:45:21;;;;;;;14.37;13.47;;;6.80;99.90;;;;;;4878580;29;20586;-77
2022/12/05 14:47:51;;;;;;;13.87;13.07;;;6.80;99.90;;;;;;4870861;29;20203;-77
2022/12/05 14:50:35;;;;;;;14.30;13.43;;;6.70;99.90;;;;;;4870610;29;20235;-76
2022/12/05 14:53:20;;;;;;;12.80;12.10;;;6.70;99.90;;;;;;4867648;29;20197;-76
2022/12/05 14:55:49;;;;;;;12.90;12.10;;;6.60;99.90;;;;;;4866475;29;20203;-77
2022/12/05 14:58:19;;;;;;;13.23;12.40;;;6.60;99.90;;;;;;4874941;29;20204;-77
2022/12/05 15:00:53;;;;;;;13.20;12.40;;;6.60;99.90;;;;;;4873067;29;20229;-77
2022/12/05 15:03:25;;;;;;;12.70;11.90;;;6.60;99.90;;;;;;4875776;29;20224;-77
2022/12/05 15:05:53;;;;;;;12.90;12.10;;;6.60;99.90;;;;;;4875602;29;20209;-76
2022/12/05 15:08:21;;;;;;;13.00;12.20;;;6.50;99.90;;;;;;4878553;29;20244;-77
2022/12/05 15:10:51;;;;;;;12.70;11.90;;;6.50;99.90;;;;;;4875733;29;20716;-80
2022/12/05 15:13:21;;;;;;;12.80;12.03;;;6.50;99.90;;;;;;4862126;29;20207;-79
2022/12/05 15:15:56;;;;;;;12.80;12.10;;;6.50;99.90;;;;;;4871201;29;20666;-79
2022/12/05 15:18:28;;;;;;;12.60;11.80;;;6.50;99.90;;;;;;4871707;29;20207;-79
2022/12/05 15:20:59;;;;;;;13.40;12.60;;;6.40;99.90;;;;;;4869745;29;20236;-78
2022/12/05 15:23:43;;;;;;;12.50;11.70;;;6.40;99.90;;;;;;4872446;29;20576;-78
2022/12/05 15:26:19;;;;;;;12.83;11.93;;;6.40;99.90;;;;;;4869582;29;20216;-78
2022/12/05 15:29:00;;;;;;;13.10;12.40;;;6.30;99.90;;;;;;4872285;29;20263;-78
2022/12/05 15:31:30;;;;;;;13.43;12.60;;;6.30;99.90;;;;;;4860980;29;20226;-77
2022/12/05 15:34:01;;;;;;;12.93;12.23;;;6.30;99.90;;;;;;4879300;29;20211;-77
2022/12/05 15:36:35;;;;;;;13.43;12.70;;;6.30;99.90;;;;;;4877250;29;20253;-78
2022/12/05 15:39:14;;;;;;;13.83;13.00;;;6.30;99.90;;;;;;4878394;29;20207;-78
2022/12/05 15:41:41;;;;;;;14.00;13.10;;;6.20;99.90;;;;;;4867875;29;20235;-79
2022/12/05 15:44:11;;;;;;;13.37;12.57;;;6.20;99.90;;;;;;4871368;29;20210;-78
2022/12/05 15:46:38;;;;;;;13.70;12.90;;;6.20;99.90;;;;;;4871783;29;20266;-78
2022/12/05 15:49:17;;;;;;;13.63;12.77;;;6.20;99.90;;;;;;4870236;29;20210;-79
2022/12/05 15:51:50;;;;;;;13.70;12.90;;;6.20;99.90;;;;;;4867379;29;20772;-78
2022/12/05 15:54:19;;;;;;;13.20;12.30;;;6.10;99.90;;;;;;4874503;29;20208;-77
2022/12/05 15:56:51;;;;;;;13.17;12.37;;;6.10;99.90;;;;;;4868636;29;20286;-78
2022/12/05 15:59:21;;;;;;;13.07;12.27;;;6.10;99.90;;;;;;4877788;29;20684;-76
2022/12/05 16:01:52;;;;;;;12.30;11.40;;;6.00;99.90;;;;;;4875661;29;20238;-78
2022/12/05 16:04:24;;;;;;;12.50;11.70;;;6.00;99.90;;;;;;4881043;29;20211;-78
2022/12/05 16:06:55;;;;;;;12.93;12.13;;;6.00;99.90;;;;;;4876385;29;20734;-77
2022/12/05 16:09:24;;;;;;;13.77;12.57;;;6.00;99.90;;;;;;4877300;29;20207;-80
2022/12/05 16:11:53;;;;;;;13.13;12.23;;;6.00;99.90;;;;;;4867727;29;20284;-79
2022/12/05 16:14:22;;;;;;;12.70;11.90;;;6.00;99.90;;;;;;4844017;29;20634;-79
2022/12/05 16:16:52;;;;;;;13.10;12.30;;;5.90;99.90;;;;;;4858582;29;20685;-78